Time;durP1;ratioP1;P1;durP2;ratioP2;P2;SDS_P1;SDS_P2;PMS_P1;PMS_P2;Temp;Humidity;BMP_temperature;BMP_pressure;BME280_temperature;BME280_humidity;BME280_pressure;Samples;Min_cycle;Max_cycle;Signal;HPM_P1;HPM_P2
2024/02/23 00:02:14;;;;;;;11.10;5.50;;;;;;;9.02;95.21;98160.73;111185;1206;98926;-71
2024/02/23 00:04:40;;;;;;;7.20;4.70;;;;;;;9.03;95.30;98158.91;111016;1206;138960;-71
2024/02/23 00:07:05;;;;;;;9.80;5.30;;;;;;;9.02;95.20;98152.01;111054;1206;99075;-71
2024/02/23 00:09:35;;;;;;;9.60;5.00;;;;;;;9.02;95.26;98153.10;111118;1206;98917;-70
2024/02/23 00:12:04;;;;;;;7.80;4.20;;;;;;;9.03;95.24;98149.45;110923;1206;139025;-71
2024/02/23 00:14:31;;;;;;;6.50;4.30;;;;;;;9.03;95.23;98154.23;111180;1210;99807;-71
2024/02/23 00:16:57;;;;;;;9.00;4.20;;;;;;;9.04;95.13;98150.55;110891;1209;138934;-71
2024/02/23 00:19:23;;;;;;;12.40;5.40;;;;;;;9.05;95.19;98153.03;111139;1209;99011;-71
2024/02/23 00:21:50;;;;;;;9.20;4.50;;;;;;;9.07;95.29;98156.61;111173;1210;99089;-71
2024/02/23 00:24:20;;;;;;;7.00;3.90;;;;;;;9.07;95.28;98155.16;111055;1209;138606;-70
2024/02/23 00:26:46;;;;;;;7.80;4.40;;;;;;;9.08;95.27;98150.30;111077;1209;107956;-70
2024/02/23 00:29:12;;;;;;;7.10;4.50;;;;;;;9.10;95.30;98151.40;111034;1212;139232;-72
2024/02/23 00:31:45;;;;;;;5.90;3.90;;;;;;;9.11;95.26;98147.73;111257;1210;99090;-71
2024/02/23 00:34:12;;;;;;;8.60;4.70;;;;;;;9.12;95.28;98144.66;111121;1212;101090;-71
2024/02/23 00:36:44;;;;;;;7.30;4.10;;;;;;;9.13;95.28;98144.21;110964;1208;138758;-71
2024/02/23 00:39:10;;;;;;;8.10;4.20;;;;;;;9.13;95.23;98135.88;110923;1212;99042;-69
2024/02/23 00:41:37;;;;;;;5.30;3.30;;;;;;;9.16;95.34;98138.83;110999;1212;138686;-70
2024/02/23 00:44:06;;;;;;;8.30;4.00;;;;;;;9.17;95.26;98138.36;111218;1209;99039;-70
2024/02/23 00:46:32;;;;;;;19.50;4.60;;;;;;;9.16;95.31;98141.45;110934;1209;138753;-69
2024/02/23 00:48:57;;;;;;;8.00;3.80;;;;;;;9.18;95.29;98138.51;111059;1210;99034;-70
2024/02/23 00:51:25;;;;;;;7.20;3.80;;;;;;;9.20;95.30;98136.19;111184;1207;98978;-70
2024/02/23 00:53:53;;;;;;;8.30;4.00;;;;;;;9.20;95.28;98135.63;110999;1206;138746;-70
2024/02/23 00:56:19;;;;;;;5.60;3.60;;;;;;;9.21;95.25;98137.52;111151;1208;108543;-70
2024/02/23 00:58:44;;;;;;;5.50;3.40;;;;;;;9.21;95.33;98136.30;111019;1206;138830;-70
2024/02/23 01:01:09;;;;;;;6.40;3.60;;;;;;;9.24;95.36;98138.20;111197;1212;99013;-70
2024/02/23 01:03:35;;;;;;;5.60;3.20;;;;;;;9.25;95.28;98136.48;111172;1206;97582;-70
2024/02/23 01:06:00;;;;;;;6.10;3.50;;;;;;;9.27;95.30;98139.20;110934;1212;138739;-70
2024/02/23 01:08:25;;;;;;;5.40;3.50;;;;;;;9.28;95.24;98143.22;111109;1206;99448;-70
2024/02/23 01:10:51;;;;;;;7.60;3.60;;;;;;;9.28;95.34;98143.75;110894;1206;139248;-70
2024/02/23 01:13:16;;;;;;;7.50;3.30;;;;;;;9.29;95.27;98145.45;111154;1211;98976;-72
2024/02/23 01:15:42;;;;;;;7.30;3.10;;;;;;;9.30;95.28;98140.40;111167;1206;98920;-72
2024/02/23 01:18:08;;;;;;;5.60;3.10;;;;;;;9.31;95.29;98141.93;110913;1206;139653;-69
2024/02/23 01:20:34;;;;;;;6.20;3.30;;;;;;;9.31;95.33;98140.86;111227;1206;98966;-70
2024/02/23 01:22:59;;;;;;;5.90;2.50;;;;;;;9.32;95.29;98144.32;110934;1206;137932;-72
2024/02/23 01:25:25;;;;;;;6.20;3.40;;;;;;;9.32;95.24;98147.50;111137;1206;99016;-69
2024/02/23 01:27:50;;;;;;;7.80;3.10;;;;;;;9.33;95.34;98147.11;111145;1206;98934;-69
2024/02/23 01:30:15;;;;;;;7.10;4.10;;;;;;;9.34;95.21;98141.69;111041;1206;139234;-70
2024/02/23 01:32:42;;;;;;;7.90;3.20;;;;;;;9.33;95.41;98140.52;111115;1206;98958;-70
2024/02/23 01:35:08;;;;;;;5.20;3.30;;;;;;;9.34;95.41;98140.05;110955;1211;138709;-71
2024/02/23 01:37:34;;;;;;;5.00;3.20;;;;;;;9.35;95.38;98143.57;111142;1209;98948;-70
2024/02/23 01:40:00;;;;;;;5.20;3.00;;;;;;;9.37;95.37;98146.41;111115;1210;99042;-70
2024/02/23 01:42:26;;;;;;;5.10;3.10;;;;;;;9.38;95.45;98149.57;111061;1210;138715;-70
2024/02/23 01:44:52;;;;;;;4.60;2.70;;;;;;;9.38;95.44;98152.91;111130;1206;99045;-70
2024/02/23 01:47:18;;;;;;;6.70;2.70;;;;;;;9.39;95.43;98153.92;111206;1212;142071;-70
2024/02/23 01:49:46;;;;;;;4.80;2.80;;;;;;;9.40;95.38;98157.25;111169;1212;99041;-69
2024/02/23 01:52:13;;;;;;;6.20;3.00;;;;;;;9.41;95.47;98162.52;111070;1210;98915;-70
2024/02/23 01:54:39;;;;;;;4.10;2.40;;;;;;;9.42;95.48;98159.41;111086;1206;138828;-70
2024/02/23 01:57:05;;;;;;;3.80;2.40;;;;;;;9.42;95.39;98160.13;111035;1206;99022;-70
2024/02/23 01:59:30;;;;;;;4.80;3.00;;;;;;;9.42;95.46;98162.05;111136;1211;138826;-71
2024/02/23 02:01:55;;;;;;;8.90;2.60;;;;;;;9.43;95.42;98161.60;111133;1206;98914;-71
2024/02/23 02:04:21;;;;;;;5.20;2.70;;;;;;;9.45;95.58;98154.19;111229;1206;98933;-70
2024/02/23 02:06:47;;;;;;;3.80;2.20;;;;;;;9.45;95.43;98152.55;110965;1206;139645;-70
2024/02/23 02:09:13;;;;;;;4.60;2.60;;;;;;;9.46;95.39;98150.73;111123;1206;99028;-70
2024/02/23 02:11:48;;;;;;;6.50;2.80;;;;;;;9.47;95.48;98152.95;111055;1206;138647;-70
2024/02/23 02:14:16;;;;;;;3.40;2.40;;;;;;;9.47;95.44;98149.92;111096;1209;113292;-70
2024/02/23 02:16:41;;;;;;;4.70;2.20;;;;;;;9.47;95.46;98156.17;111041;1206;138733;-70
2024/02/23 02:19:06;;;;;;;3.50;2.50;;;;;;;9.46;95.44;98153.37;111028;1206;98997;-70
2024/02/23 02:21:33;;;;;;;3.90;2.20;;;;;;;9.45;95.47;98154.14;111278;1210;98919;-71
2024/02/23 02:23:58;;;;;;;6.20;2.70;;;;;;;9.45;95.42;98154.37;111213;1205;138732;-71
2024/02/23 02:26:24;;;;;;;3.40;2.40;;;;;;;9.44;95.44;98153.54;111149;1206;98916;-70
2024/02/23 02:28:49;;;;;;;4.50;2.20;;;;;;;9.43;95.41;98164.29;111052;1211;138713;-70
2024/02/23 02:31:16;;;;;;;4.50;2.00;;;;;;;9.43;95.50;98164.25;111159;1206;99012;-70
2024/02/23 02:33:41;;;;;;;3.90;2.40;;;;;;;9.44;95.49;98164.38;111093;1206;98923;-71
2024/02/23 02:36:07;;;;;;;3.10;2.00;;;;;;;9.44;95.49;98165.25;110942;1206;138655;-71
2024/02/23 02:38:35;;;;;;;2.30;1.60;;;;;;;9.44;95.43;98170.43;111049;1211;99044;-71
2024/02/23 02:41:01;;;;;;;3.80;1.90;;;;;;;9.43;95.44;98169.08;110953;1206;139270;-71
2024/02/23 02:43:27;;;;;;;4.40;1.90;;;;;;;9.42;95.50;98160.98;111387;1206;99001;-71
2024/02/23 02:45:53;;;;;;;3.70;1.70;;;;;;;9.42;95.44;98158.70;111211;1206;99033;-71
2024/02/23 02:48:18;;;;;;;2.40;1.80;;;;;;;9.43;95.51;98154.70;111020;1206;138996;-71
2024/02/23 02:50:44;;;;;;;3.60;1.80;;;;;;;9.42;95.52;98159.77;111192;1206;98887;-70
2024/02/23 02:53:10;;;;;;;2.50;1.90;;;;;;;9.42;95.48;98163.50;111120;1206;139120;-71
2024/02/23 02:55:37;;;;;;;4.70;1.60;;;;;;;9.41;95.44;98170.84;111248;1212;99041;-71
2024/02/23 02:58:02;;;;;;;2.30;1.80;;;;;;;9.41;95.42;98182.77;111226;1211;99023;-70
2024/02/23 03:00:28;;;;;;;3.30;2.30;;;;;;;9.42;95.49;98192.34;111075;1206;138992;-71
2024/02/23 03:02:53;;;;;;;5.40;1.60;;;;;;;9.41;95.51;98189.61;111141;1206;99225;-70
2024/02/23 03:05:19;;;;;;;3.10;1.80;;;;;;;9.42;95.55;98198.38;111025;1207;138793;-70
2024/02/23 03:07:44;;;;;;;2.70;1.60;;;;;;;9.41;95.50;98198.50;111251;1205;99039;-71
2024/02/23 03:10:10;;;;;;;3.70;1.70;;;;;;;9.40;95.47;98202.66;111042;1209;112006;-70
2024/02/23 03:12:35;;;;;;;4.30;1.50;;;;;;;9.40;95.56;98196.92;111081;1211;138728;-70
2024/02/23 03:15:02;;;;;;;4.10;1.90;;;;;;;9.41;95.49;98197.97;111205;1206;99003;-71
2024/02/23 03:17:27;;;;;;;3.10;2.00;;;;;;;9.41;95.60;98202.92;111075;1206;138475;-71
2024/02/23 03:19:53;;;;;;;4.50;1.80;;;;;;;9.42;95.60;98207.49;111164;1206;98944;-71
2024/02/23 03:22:18;;;;;;;2.60;1.70;;;;;;;9.41;95.56;98208.61;111188;1206;99017;-70
2024/02/23 03:24:43;;;;;;;2.40;1.90;;;;;;;9.41;95.55;98216.83;110962;1210;139540;-70
2024/02/23 03:27:08;;;;;;;2.70;1.60;;;;;;;9.40;95.53;98219.59;111118;1207;98917;-70
2024/02/23 03:29:34;;;;;;;4.50;1.80;;;;;;;9.40;95.60;98218.50;111051;1206;138617;-70
2024/02/23 03:32:01;;;;;;;5.50;1.80;;;;;;;9.41;95.54;98219.38;111144;1206;99004;-71
2024/02/23 03:34:27;;;;;;;5.20;1.80;;;;;;;9.42;95.63;98228.86;111224;1206;98942;-71
2024/02/23 03:36:52;;;;;;;5.50;1.50;;;;;;;9.44;95.57;98232.15;110961;1206;139250;-71
2024/02/23 03:39:18;;;;;;;5.70;2.10;;;;;;;9.46;95.58;98234.67;111204;1206;98930;-71
2024/02/23 03:41:43;;;;;;;6.20;1.70;;;;;;;9.49;95.76;98237.63;111034;1210;138454;-71
2024/02/23 03:44:08;;;;;;;5.90;1.90;;;;;;;9.51;95.75;98245.00;111125;1206;99032;-70
2024/02/23 03:46:34;;;;;;;4.10;1.70;;;;;;;9.52;95.65;98241.02;111131;1210;139516;-69
2024/02/23 03:49:00;;;;;;;3.20;1.80;;;;;;;9.53;95.77;98248.55;111035;1209;98328;-71
2024/02/23 03:51:25;;;;;;;5.30;2.20;;;;;;;9.55;95.72;98253.73;111171;1205;98918;-70
2024/02/23 03:53:50;;;;;;;3.70;1.60;;;;;;;9.55;95.56;98259.30;110945;1206;139028;-70
2024/02/23 03:56:16;;;;;;;3.50;1.60;;;;;;;9.56;95.63;98264.02;111093;1210;99014;-70
2024/02/23 03:58:41;;;;;;;2.90;1.40;;;;;;;9.57;95.58;98264.45;111187;1209;138816;-70
2024/02/23 04:01:06;;;;;;;6.00;1.90;;;;;;;9.57;95.58;98270.00;111074;1205;97552;-71
2024/02/23 04:03:31;;;;;;;3.00;1.30;;;;;;;9.57;95.60;98274.80;111176;1205;98954;-70
2024/02/23 04:05:57;;;;;;;1.70;1.20;;;;;;;9.59;95.62;98280.75;110952;1206;138919;-71
2024/02/23 04:08:22;;;;;;;4.20;1.80;;;;;;;9.60;95.61;98289.41;111188;1205;98927;-70
2024/02/23 04:10:48;;;;;;;4.00;1.30;;;;;;;9.60;95.57;98299.52;111131;1210;138802;-70
2024/02/23 04:13:17;;;;;;;4.00;1.40;;;;;;;9.61;95.61;98292.85;111081;1206;96473;-70
2024/02/23 04:15:43;;;;;;;2.90;1.30;;;;;;;9.62;95.66;98303.64;111083;1210;108013;-71
2024/02/23 04:18:09;;;;;;;2.80;1.50;;;;;;;9.62;95.65;98311.84;110918;1206;138855;-71
2024/02/23 04:20:34;;;;;;;2.50;1.20;;;;;;;9.63;95.51;98314.27;111257;1205;99003;-71
2024/02/23 04:23:00;;;;;;;2.50;1.50;;;;;;;9.64;95.68;98308.87;111017;1206;138872;-71
2024/02/23 04:25:25;;;;;;;2.70;1.40;;;;;;;9.64;95.55;98311.72;111067;1212;99063;-70
2024/02/23 04:27:51;;;;;;;3.70;1.40;;;;;;;9.64;95.67;98314.71;111129;1210;99136;-70
2024/02/23 04:30:16;;;;;;;4.10;1.90;;;;;;;9.66;95.60;98319.96;110999;1206;138368;-70
2024/02/23 04:32:42;;;;;;;2.70;1.60;;;;;;;9.67;95.68;98318.98;111229;1210;99053;-70
2024/02/23 04:35:08;;;;;;;2.10;1.50;;;;;;;9.68;95.61;98325.64;110938;1210;138842;-71
2024/02/23 04:37:33;;;;;;;4.50;2.10;;;;;;;9.70;95.63;98328.02;111132;1210;99237;-71
2024/02/23 04:39:58;;;;;;;4.80;2.00;;;;;;;9.71;95.58;98334.50;111160;1206;99073;-71
2024/02/23 04:42:23;;;;;;;5.50;2.00;;;;;;;9.73;95.67;98342.23;110997;1206;139058;-70
2024/02/23 04:44:49;;;;;;;2.90;2.10;;;;;;;9.74;95.57;98348.61;111197;1206;98942;-70
2024/02/23 04:47:14;;;;;;;2.80;1.60;;;;;;;9.74;95.68;98350.85;111054;1206;138990;-71
2024/02/23 04:49:40;;;;;;;3.10;1.50;;;;;;;9.77;95.59;98348.91;111239;1206;98932;-70
2024/02/23 04:52:06;;;;;;;2.10;1.10;;;;;;;9.80;95.65;98351.17;111187;1205;99069;-70
2024/02/23 04:54:31;;;;;;;2.30;1.00;;;;;;;9.81;95.57;98354.98;111192;1209;138851;-71
2024/02/23 04:56:56;;;;;;;3.80;1.40;;;;;;;9.82;95.58;98351.14;111098;1209;99045;-71
2024/02/23 04:59:23;;;;;;;3.80;1.20;;;;;;;9.85;95.48;98356.33;111053;1206;138811;-70
2024/02/23 05:01:48;;;;;;;2.10;0.90;;;;;;;9.85;95.49;98360.55;111102;1206;99035;-71
2024/02/23 05:04:14;;;;;;;5.10;1.20;;;;;;;9.87;95.54;98367.91;111055;1206;99072;-71
2024/02/23 05:06:39;;;;;;;2.30;1.30;;;;;;;9.88;95.35;98369.79;111082;1206;138679;-70
2024/02/23 05:09:08;;;;;;;2.70;1.50;;;;;;;9.90;95.52;98375.55;111075;1211;99104;-71
2024/02/23 05:11:34;;;;;;;2.70;1.40;;;;;;;9.92;95.40;98380.87;110987;1206;138636;-71
2024/02/23 05:13:59;;;;;;;2.00;1.10;;;;;;;9.92;95.42;98385.68;111086;1211;98954;-70
2024/02/23 05:16:25;;;;;;;2.10;1.00;;;;;;;9.94;95.41;98399.13;111177;1206;99145;-71
2024/02/23 05:18:50;;;;;;;2.10;1.20;;;;;;;9.95;95.36;98407.23;110932;1206;138357;-71
2024/02/23 05:21:16;;;;;;;1.80;1.20;;;;;;;9.96;95.35;98407.53;111172;1205;98939;-71
2024/02/23 05:23:41;;;;;;;1.30;0.90;;;;;;;9.96;95.42;98410.87;111035;1206;138806;-71
2024/02/23 05:26:09;;;;;;;1.80;1.00;;;;;;;9.97;95.39;98415.66;111113;1206;99052;-71
2024/02/23 05:28:34;;;;;;;4.00;1.00;;;;;;;9.98;95.47;98424.33;111225;1205;97619;-70
2024/02/23 05:31:03;;;;;;;1.50;0.80;;;;;;;9.99;95.24;98428.35;111003;1207;138653;-70
2024/02/23 05:33:29;;;;;;;3.40;1.10;;;;;;;10.00;95.23;98434.83;111113;1206;111861;-71
2024/02/23 05:35:54;;;;;;;1.00;0.70;;;;;;;10.04;95.44;98444.40;110890;1211;139242;-71
2024/02/23 05:38:19;;;;;;;1.70;1.00;;;;;;;10.07;95.24;98446.64;111153;1212;98942;-71
2024/02/23 05:40:45;;;;;;;2.00;1.00;;;;;;;10.08;95.22;98453.34;111050;1209;138847;-70
2024/02/23 05:43:11;;;;;;;1.70;1.10;;;;;;;10.11;95.22;98458.48;111179;1206;99056;-70
2024/02/23 05:45:36;;;;;;;2.00;1.20;;;;;;;10.12;95.12;98467.71;111104;1210;107188;-70
2024/02/23 05:48:02;;;;;;;2.20;1.30;;;;;;;10.12;95.16;98477.32;110922;1206;139425;-71
2024/02/23 05:50:27;;;;;;;1.60;1.10;;;;;;;10.13;95.04;98483.33;111186;1206;99022;-71
2024/02/23 05:52:55;;;;;;;2.30;1.30;;;;;;;10.14;94.97;98490.73;110970;1206;138775;-70
2024/02/23 05:55:20;;;;;;;2.10;0.90;;;;;;;10.15;95.14;98498.31;111103;1210;98964;-71
2024/02/23 05:57:46;;;;;;;2.40;1.30;;;;;;;10.18;94.96;98494.58;111085;1206;99066;-71
2024/02/23 06:00:12;;;;;;;1.40;0.90;;;;;;;10.20;94.92;98502.79;110949;1210;138852;-71
2024/02/23 06:02:38;;;;;;;2.60;1.10;;;;;;;10.23;94.77;98506.16;111204;1206;99796;-71
2024/02/23 06:05:04;;;;;;;1.60;0.90;;;;;;;10.26;94.72;98511.98;110875;1209;138989;-71
2024/02/23 06:07:30;;;;;;;1.60;1.00;;;;;;;10.30;94.62;98522.76;111606;1210;99038;-71
2024/02/23 06:09:56;;;;;;;2.20;1.10;;;;;;;10.33;94.45;98521.27;111052;1209;112895;-71
2024/02/23 06:12:22;;;;;;;1.30;1.00;;;;;;;10.37;94.62;98526.85;111037;1206;139102;-71
2024/02/23 06:14:47;;;;;;;2.90;1.00;;;;;;;10.40;94.40;98525.13;111255;1210;98991;-71
2024/02/23 06:17:13;;;;;;;2.80;1.20;;;;;;;10.42;94.28;98523.55;110970;1210;138999;-71
2024/02/23 06:19:38;;;;;;;5.50;1.70;;;;;;;10.43;94.15;98525.84;111181;1206;99034;-71
2024/02/23 06:22:03;;;;;;;1.30;1.00;;;;;;;10.44;94.20;98532.39;111179;1210;98996;-71
2024/02/23 06:24:29;;;;;;;1.40;0.90;;;;;;;10.45;94.10;98534.95;111036;1211;138898;-71
2024/02/23 06:26:54;;;;;;;2.20;1.20;;;;;;;10.45;94.01;98538.17;111173;1209;98939;-71
2024/02/23 06:29:19;;;;;;;3.00;1.20;;;;;;;10.45;94.03;98543.91;111111;1206;138949;-70
2024/02/23 06:31:48;;;;;;;2.00;1.30;;;;;;;10.44;93.99;98551.26;111142;1208;99019;-70
2024/02/23 06:34:14;;;;;;;7.60;1.30;;;;;;;10.44;93.75;98563.45;111080;1209;98944;-70
2024/02/23 06:36:39;;;;;;;2.30;1.30;;;;;;;10.44;93.74;98566.30;111047;1206;138922;-71
2024/02/23 06:39:05;;;;;;;4.80;1.20;;;;;;;10.45;93.69;98568.84;111160;1209;98999;-71
2024/02/23 06:41:31;;;;;;;3.20;1.60;;;;;;;10.46;93.58;98575.25;111012;1206;139314;-71
2024/02/23 06:43:56;;;;;;;2.30;1.40;;;;;;;10.45;93.48;98585.13;111169;1206;98996;-71
2024/02/23 06:46:22;;;;;;;4.10;1.60;;;;;;;10.45;93.41;98589.95;111129;1206;112746;-71
2024/02/23 06:48:47;;;;;;;3.90;1.20;;;;;;;10.45;93.27;98593.67;111030;1206;139107;-71
2024/02/23 06:51:14;;;;;;;4.10;1.40;;;;;;;10.46;93.13;98603.45;111123;1206;99101;-71
2024/02/23 06:53:39;;;;;;;3.80;1.50;;;;;;;10.45;93.00;98605.98;111050;1209;139060;-71
2024/02/23 06:56:05;;;;;;;3.30;0.90;;;;;;;10.46;92.76;98615.42;111137;1209;99454;-71
2024/02/23 06:58:30;;;;;;;2.00;0.70;;;;;;;10.44;92.46;98623.06;111157;1210;99046;-71
2024/02/23 07:00:55;;;;;;;1.80;0.40;;;;;;;10.45;92.07;98640.30;110899;1205;138956;-71
2024/02/23 07:03:21;;;;;;;4.40;0.60;;;;;;;10.44;91.90;98653.77;111211;1206;99012;-71
2024/02/23 07:05:47;;;;;;;2.30;0.60;;;;;;;10.45;91.52;98668.67;110985;1206;138909;-71
2024/02/23 07:08:12;;;;;;;1.40;0.50;;;;;;;10.46;91.26;98657.89;111089;1207;98946;-71
2024/02/23 07:10:38;;;;;;;1.10;0.50;;;;;;;10.46;90.89;98663.27;111213;1205;99050;-70
2024/02/23 07:13:05;;;;;;;2.70;0.70;;;;;;;10.45;90.63;98673.52;110970;1206;138760;-70
2024/02/23 07:15:32;;;;;;;2.60;0.70;;;;;;;10.44;90.31;98668.73;111119;1206;98935;-71
2024/02/23 07:17:58;;;;;;;2.00;0.40;;;;;;;10.44;89.99;98667.52;110972;1207;138849;-71
2024/02/23 07:20:23;;;;;;;1.20;0.30;;;;;;;10.43;89.77;98671.53;111095;1210;99029;-71
2024/02/23 07:22:48;;;;;;;1.00;0.40;;;;;;;10.42;89.42;98674.05;111133;1206;138737;-69
2024/02/23 07:25:17;;;;;;;1.60;0.50;;;;;;;10.43;89.20;98670.80;111107;1207;99617;-71
2024/02/23 07:27:44;;;;;;;2.20;0.60;;;;;;;10.42;88.67;98667.46;111163;1210;107721;-70
2024/02/23 07:30:11;;;;;;;1.00;0.50;;;;;;;10.42;88.53;98674.98;111061;1210;138360;-71
2024/02/23 07:32:36;;;;;;;1.30;0.60;;;;;;;10.42;88.18;98682.31;111122;1209;98949;-71
2024/02/23 07:35:03;;;;;;;1.20;0.50;;;;;;;10.40;87.87;98687.24;111007;1206;138794;-71
2024/02/23 07:37:29;;;;;;;1.90;1.00;;;;;;;10.40;87.73;98697.10;110953;1212;106575;-70
2024/02/23 07:39:54;;;;;;;2.90;0.70;;;;;;;10.40;87.53;98705.50;111110;1206;99678;-71
2024/02/23 07:42:19;;;;;;;1.80;0.80;;;;;;;10.37;87.26;98710.20;111027;1209;138738;-71
2024/02/23 07:44:45;;;;;;;1.80;1.10;;;;;;;10.36;87.07;98716.91;111177;1207;98942;-70
2024/02/23 07:47:11;;;;;;;1.40;0.50;;;;;;;10.34;86.88;98725.05;111050;1209;139407;-70
2024/02/23 07:49:37;;;;;;;1.50;0.90;;;;;;;10.35;86.72;98733.77;111184;1210;97325;-71
2024/02/23 07:52:03;;;;;;;6.80;1.00;;;;;;;10.36;86.60;98740.27;111076;1211;100302;-71
2024/02/23 07:54:28;;;;;;;4.00;1.20;;;;;;;10.36;86.36;98738.60;111196;1210;139083;-70
2024/02/23 07:56:54;;;;;;;5.00;1.00;;;;;;;10.38;86.26;98744.75;111110;1209;99011;-71
2024/02/23 07:59:19;;;;;;;7.10;1.40;;;;;;;10.40;86.10;98754.61;111081;1206;138761;-71
2024/02/23 08:01:45;;;;;;;1.30;0.90;;;;;;;10.39;85.83;98757.19;111190;1210;97645;-71
2024/02/23 08:04:13;;;;;;;2.00;0.70;;;;;;;10.39;85.81;98761.65;111092;1206;99142;-71
2024/02/23 08:06:39;;;;;;;2.50;1.20;;;;;;;10.38;85.58;98766.86;111053;1212;139903;-70
2024/02/23 08:09:04;;;;;;;3.10;1.30;;;;;;;10.38;85.29;98779.02;111140;1206;99029;-71
2024/02/23 08:11:30;;;;;;;4.20;1.50;;;;;;;10.36;85.11;98780.05;111123;1205;138376;-71
2024/02/23 08:13:55;;;;;;;3.00;1.50;;;;;;;10.36;85.03;98778.96;111098;1205;98989;-70
2024/02/23 08:16:26;;;;;;;3.90;2.10;;;;;;;10.38;85.06;98780.64;111205;1206;98952;-70
2024/02/23 08:18:55;;;;;;;5.20;2.30;;;;;;;10.39;84.80;98783.05;110995;1210;137971;-70
2024/02/23 08:21:20;;;;;;;5.50;1.90;;;;;;;10.39;84.77;98784.32;111010;1208;113138;-70
2024/02/23 08:23:46;;;;;;;5.30;1.70;;;;;;;10.37;84.50;98794.08;111068;1211;138791;-70
2024/02/23 08:26:12;;;;;;;4.80;2.20;;;;;;;10.32;84.29;98797.47;111089;1209;99494;-71
2024/02/23 08:28:39;;;;;;;2.70;1.40;;;;;;;10.29;84.32;98798.64;111040;1206;99000;-70
2024/02/23 08:31:07;;;;;;;2.90;1.40;;;;;;;10.26;84.14;98801.83;111011;1206;138954;-71
2024/02/23 08:33:32;;;;;;;3.90;1.40;;;;;;;10.24;84.05;98803.45;111121;1206;99033;-70
2024/02/23 08:35:57;;;;;;;2.60;1.40;;;;;;;10.23;83.85;98798.31;110974;1205;138699;-70
2024/02/23 08:38:23;;;;;;;4.20;1.50;;;;;;;10.24;84.00;98802.77;111138;1211;99065;-70
2024/02/23 08:40:49;;;;;;;4.10;1.50;;;;;;;10.25;83.70;98805.16;111122;1210;99147;-70
2024/02/23 08:43:14;;;;;;;3.60;1.30;;;;;;;10.27;83.63;98805.91;111055;1209;138331;-70
2024/02/23 08:45:40;;;;;;;4.10;0.90;;;;;;;10.25;83.57;98812.67;111203;1206;99034;-70
2024/02/23 08:48:06;;;;;;;2.90;0.80;;;;;;;10.27;83.35;98815.89;110997;1207;139264;-70
2024/02/23 08:50:32;;;;;;;2.10;0.70;;;;;;;10.28;83.33;98822.58;111161;1211;99032;-69
2024/02/23 08:52:57;;;;;;;3.60;0.80;;;;;;;10.28;83.06;98827.41;110992;1205;139191;-70
2024/02/23 08:55:23;;;;;;;0.90;0.70;;;;;;;10.28;83.04;98837.45;111077;1209;99035;-71
2024/02/23 08:57:48;;;;;;;2.20;0.80;;;;;;;10.29;82.86;98840.77;111238;1206;100101;-70
2024/02/23 09:00:14;;;;;;;4.10;0.80;;;;;;;10.31;82.75;98856.34;111034;1206;138268;-70
2024/02/23 09:02:42;;;;;;;1.90;0.80;;;;;;;10.29;82.55;98861.83;111121;1210;99087;-70
2024/02/23 09:05:08;;;;;;;4.50;1.00;;;;;;;10.26;82.33;98868.64;110996;1205;138757;-70
2024/02/23 09:07:33;;;;;;;3.50;1.10;;;;;;;10.22;82.07;98874.27;111243;1206;98940;-70
2024/02/23 09:09:58;;;;;;;4.00;1.10;;;;;;;10.19;82.18;98879.45;111081;1209;98932;-70
2024/02/23 09:12:24;;;;;;;2.50;1.00;;;;;;;10.19;82.13;98904.61;111107;1208;138147;-70
2024/02/23 09:14:49;;;;;;;2.50;0.90;;;;;;;10.17;81.89;98912.98;111175;1206;98945;-70
2024/02/23 09:17:14;;;;;;;3.50;1.40;;;;;;;10.13;81.82;98915.72;110970;1206;139235;-70
2024/02/23 09:19:40;;;;;;;2.70;0.90;;;;;;;10.12;81.69;98913.48;111209;1209;99349;-70
2024/02/23 09:22:05;;;;;;;1.60;0.90;;;;;;;10.11;81.53;98917.13;111078;1208;98949;-70
2024/02/23 09:24:30;;;;;;;1.70;0.90;;;;;;;10.09;81.43;98914.75;111129;1206;138751;-70
2024/02/23 09:26:56;;;;;;;1.40;1.00;;;;;;;10.07;81.31;98920.09;111121;1206;99306;-70
2024/02/23 09:29:21;;;;;;;5.80;0.80;;;;;;;10.03;81.09;98921.73;111046;1209;139009;-70
2024/02/23 09:31:47;;;;;;;3.90;0.60;;;;;;;10.03;81.02;98928.75;111190;1206;98912;-70
2024/02/23 09:34:13;;;;;;;0.90;0.60;;;;;;;10.02;80.86;98930.75;111108;1207;98983;-70
2024/02/23 09:36:38;;;;;;;2.30;0.80;;;;;;;10.03;80.89;98934.25;111024;1206;138816;-70
2024/02/23 09:39:04;;;;;;;4.70;1.40;;;;;;;10.07;80.87;98941.30;111149;1208;98939;-70
2024/02/23 09:41:30;;;;;;;2.10;1.10;;;;;;;10.10;80.78;98946.84;111045;1210;140337;-70
2024/02/23 09:43:59;;;;;;;2.90;1.30;;;;;;;10.12;80.72;98955.26;111063;1210;99020;-70
2024/02/23 09:46:25;;;;;;;1.70;1.10;;;;;;;10.10;80.43;98954.48;111188;1212;99201;-71
2024/02/23 09:48:51;;;;;;;4.30;1.30;;;;;;;10.11;80.43;98957.82;111046;1207;138125;-70
2024/02/23 09:51:17;;;;;;;5.60;1.10;;;;;;;10.10;80.26;98964.29;111253;1210;98952;-70
2024/02/23 09:53:43;;;;;;;8.30;1.40;;;;;;;10.09;80.16;98965.98;111033;1210;138811;-71
2024/02/23 09:56:10;;;;;;;5.20;1.40;;;;;;;10.07;80.12;98969.64;111133;1206;99033;-71
2024/02/23 09:58:41;;;;;;;4.00;0.70;;;;;;;10.07;80.00;98980.23;111205;1206;98936;-71
2024/02/23 10:01:06;;;;;;;3.70;0.80;;;;;;;10.05;79.76;98979.46;111024;1208;138881;-70
2024/02/23 10:03:32;;;;;;;3.80;1.20;;;;;;;10.04;79.73;98987.20;111185;1207;99426;-70
2024/02/23 10:05:57;;;;;;;1.90;1.00;;;;;;;10.06;79.77;98989.35;111052;1208;138157;-71
2024/02/23 10:08:23;;;;;;;3.90;1.00;;;;;;;10.09;79.60;98989.17;111091;1205;98947;-70
2024/02/23 10:10:51;;;;;;;2.20;1.30;;;;;;;10.09;79.45;98990.09;111201;1206;99896;-71
2024/02/23 10:13:20;;;;;;;2.90;1.20;;;;;;;10.06;79.22;98988.87;111083;1210;138124;-71
2024/02/23 10:15:48;;;;;;;3.20;1.00;;;;;;;10.03;79.09;98988.54;111189;1208;100088;-70
2024/02/23 10:18:14;;;;;;;4.10;1.50;;;;;;;10.03;79.07;98987.80;110997;1206;139035;-70
2024/02/23 10:20:40;;;;;;;4.00;1.40;;;;;;;10.03;78.95;98996.74;111190;1206;99054;-71
2024/02/23 10:23:07;;;;;;;3.80;0.90;;;;;;;10.03;78.89;99003.70;111074;1210;138972;-70
2024/02/23 10:25:37;;;;;;;2.10;0.70;;;;;;;10.04;78.73;99011.48;111169;1209;100274;-71
2024/02/23 10:28:04;;;;;;;3.40;0.90;;;;;;;10.02;78.58;99017.52;111290;1210;107970;-71
2024/02/23 10:30:29;;;;;;;1.90;0.80;;;;;;;10.01;78.58;99021.86;111066;1207;138789;-70
2024/02/23 10:32:58;;;;;;;3.60;1.40;;;;;;;10.02;78.57;99022.13;111133;1209;98925;-70
2024/02/23 10:35:25;;;;;;;2.40;1.10;;;;;;;10.05;78.36;99014.56;111003;1210;138664;-70
2024/02/23 10:37:53;;;;;;;3.30;0.90;;;;;;;10.10;78.28;99017.69;111129;1209;99114;-71
2024/02/23 10:40:19;;;;;;;3.80;1.10;;;;;;;10.11;78.01;99017.62;111149;1206;99038;-71
2024/02/23 10:42:51;;;;;;;3.50;0.60;;;;;;;10.09;77.72;99025.22;111059;1206;138155;-70
2024/02/23 10:45:23;;;;;;;3.50;0.90;;;;;;;10.03;77.51;99030.41;111158;1208;99091;-70
2024/02/23 10:47:50;;;;;;;4.50;1.00;;;;;;;10.00;77.41;99012.80;111070;1207;138181;-71
2024/02/23 10:50:19;;;;;;;1.20;0.70;;;;;;;9.99;77.36;99023.39;111103;1205;99006;-71
2024/02/23 10:52:45;;;;;;;2.00;0.80;;;;;;;9.97;77.20;99028.67;111128;1210;107948;-71
2024/02/23 10:55:11;;;;;;;1.20;0.80;;;;;;;9.98;76.91;99031.50;110970;1206;138007;-71
2024/02/23 10:57:37;;;;;;;5.70;0.80;;;;;;;9.97;76.74;99033.33;111189;1207;99208;-71
2024/02/23 11:00:10;;;;;;;2.60;0.50;;;;;;;9.98;76.65;99032.19;111291;1206;137893;-71
2024/02/23 11:03:03;;;;;;;3.30;0.80;;;;;;;10.01;76.60;99032.89;111210;1205;107019;-71
2024/02/23 11:05:29;;;;;;;1.40;0.70;;;;;;;10.05;76.44;99042.45;110966;1207;138398;-70
2024/02/23 11:07:58;;;;;;;1.80;0.70;;;;;;;10.04;76.06;99040.35;111033;1206;99107;-71
2024/02/23 11:10:27;;;;;;;1.30;0.50;;;;;;;10.02;75.84;99050.00;111214;1205;99072;-70
2024/02/23 11:13:08;;;;;;;0.60;0.40;;;;;;;9.98;75.63;99048.10;111010;1207;138580;-70
2024/02/23 11:15:39;;;;;;;1.00;0.70;;;;;;;9.96;75.52;99048.41;111155;1210;107996;-71
2024/02/23 11:18:21;;;;;;;5.60;1.00;;;;;;;9.98;75.52;99058.23;110988;1205;138074;-71
2024/02/23 11:20:54;;;;;;;3.90;1.10;;;;;;;9.99;75.07;99057.14;111199;1206;98927;-71